sensor_id;sensor_type;location;lat;lon;timestamp;P1;durP1;ratioP1;P2;durP2;ratioP2
9729;SDS011;4904;49.152;11.004;2022-08-11T00:01:37;3.28;;;2.55;;
9729;SDS011;4904;49.152;11.004;2022-08-11T00:04:10;3.13;;;2.83;;
9729;SDS011;4904;49.152;11.004;2022-08-11T00:06:40;6.72;;;2.75;;
9729;SDS011;4904;49.152;11.004;2022-08-11T00:09:10;3.40;;;3.08;;
9729;SDS011;4904;49.152;11.004;2022-08-11T00:11:38;4.82;;;2.63;;
9729;SDS011;4904;49.152;11.004;2022-08-11T00:14:12;5.53;;;2.80;;
9729;SDS011;4904;49.152;11.004;2022-08-11T00:16:40;3.80;;;2.80;;
9729;SDS011;4904;49.152;11.004;2022-08-11T00:19:10;4.45;;;2.67;;
9729;SDS011;4904;49.152;11.004;2022-08-11T00:21:46;3.75;;;2.67;;
9729;SDS011;4904;49.152;11.004;2022-08-11T00:24:14;3.33;;;2.70;;
9729;SDS011;4904;49.152;11.004;2022-08-11T00:26:45;3.00;;;2.70;;
9729;SDS011;4904;49.152;11.004;2022-08-11T00:29:13;4.80;;;2.75;;
9729;SDS011;4904;49.152;11.004;2022-08-11T00:31:42;3.20;;;2.80;;
9729;SDS011;4904;49.152;11.004;2022-08-11T00:34:11;6.38;;;3.17;;
9729;SDS011;4904;49.152;11.004;2022-08-11T00:36:41;2.75;;;2.55;;
9729;SDS011;4904;49.152;11.004;2022-08-11T00:39:13;3.00;;;2.70;;
9729;SDS011;4904;49.152;11.004;2022-08-11T00:41:43;3.20;;;2.75;;
9729;SDS011;4904;49.152;11.004;2022-08-11T00:44:26;3.33;;;2.80;;
9729;SDS011;4904;49.152;11.004;2022-08-11T00:47:01;3.00;;;2.78;;
9729;SDS011;4904;49.152;11.004;2022-08-11T00:49:42;4.85;;;2.78;;
9729;SDS011;4904;49.152;11.004;2022-08-11T00:52:21;3.75;;;2.65;;
9729;SDS011;4904;49.152;11.004;2022-08-11T01:01:19;9.82;;;2.80;;
9729;SDS011;4904;49.152;11.004;2022-08-11T01:04:05;3.65;;;3.10;;
9729;SDS011;4904;49.152;11.004;2022-08-11T01:06:46;3.42;;;2.90;;
9729;SDS011;4904;49.152;11.004;2022-08-11T01:09:32;4.45;;;3.15;;
9729;SDS011;4904;49.152;11.004;2022-08-11T01:12:27;3.40;;;3.10;;
9729;SDS011;4904;49.152;11.004;2022-08-11T01:15:18;3.22;;;2.95;;
9729;SDS011;4904;49.152;11.004;2022-08-11T01:21:19;3.30;;;3.00;;
9729;SDS011;4904;49.152;11.004;2022-08-11T01:27:20;4.43;;;3.55;;
9729;SDS011;4904;49.152;11.004;2022-08-11T01:33:25;3.47;;;2.70;;
9729;SDS011;4904;49.152;11.004;2022-08-11T01:46:09;4.47;;;2.97;;
9729;SDS011;4904;49.152;11.004;2022-08-11T01:48:43;7.65;;;3.10;;
9729;SDS011;4904;49.152;11.004;2022-08-11T01:51:24;5.10;;;3.10;;
9729;SDS011;4904;49.152;11.004;2022-08-11T01:54:01;3.97;;;2.97;;
9729;SDS011;4904;49.152;11.004;2022-08-11T01:56:37;6.75;;;3.20;;
9729;SDS011;4904;49.152;11.004;2022-08-11T01:59:24;3.10;;;2.65;;
9729;SDS011;4904;49.152;11.004;2022-08-11T02:05:21;3.88;;;2.90;;
9729;SDS011;4904;49.152;11.004;2022-08-11T02:07:58;4.38;;;3.30;;
9729;SDS011;4904;49.152;11.004;2022-08-11T02:10:30;4.82;;;2.97;;
9729;SDS011;4904;49.152;11.004;2022-08-11T02:13:23;5.30;;;3.10;;
9729;SDS011;4904;49.152;11.004;2022-08-11T02:16:03;3.70;;;3.17;;
9729;SDS011;4904;49.152;11.004;2022-08-11T02:18:49;4.57;;;3.22;;
9729;SDS011;4904;49.152;11.004;2022-08-11T02:21:44;3.63;;;3.08;;
9729;SDS011;4904;49.152;11.004;2022-08-11T02:24:36;4.47;;;3.85;;
9729;SDS011;4904;49.152;11.004;2022-08-11T02:27:13;4.90;;;3.85;;
9729;SDS011;4904;49.152;11.004;2022-08-11T02:29:48;9.73;;;3.80;;
9729;SDS011;4904;49.152;11.004;2022-08-11T02:32:30;5.03;;;3.10;;
9729;SDS011;4904;49.152;11.004;2022-08-11T02:35:24;3.40;;;3.10;;
9729;SDS011;4904;49.152;11.004;2022-08-11T02:38:05;6.47;;;3.33;;
9729;SDS011;4904;49.152;11.004;2022-08-11T02:40:41;4.15;;;3.22;;
9729;SDS011;4904;49.152;11.004;2022-08-11T02:43:26;6.13;;;3.63;;
9729;SDS011;4904;49.152;11.004;2022-08-11T02:46:15;3.60;;;3.22;;
9729;SDS011;4904;49.152;11.004;2022-08-11T02:48:47;3.17;;;2.90;;
9729;SDS011;4904;49.152;11.004;2022-08-11T02:51:41;4.68;;;3.15;;
9729;SDS011;4904;49.152;11.004;2022-08-11T02:54:20;6.40;;;3.35;;
9729;SDS011;4904;49.152;11.004;2022-08-11T02:56:53;3.72;;;3.25;;
9729;SDS011;4904;49.152;11.004;2022-08-11T02:59:28;3.75;;;3.00;;
9729;SDS011;4904;49.152;11.004;2022-08-11T03:05:17;5.30;;;3.50;;
9729;SDS011;4904;49.152;11.004;2022-08-11T03:10:43;4.85;;;3.28;;
9729;SDS011;4904;49.152;11.004;2022-08-11T03:13:33;3.90;;;3.50;;
9729;SDS011;4904;49.152;11.004;2022-08-11T03:16:23;6.25;;;3.40;;
9729;SDS011;4904;49.152;11.004;2022-08-11T03:19:15;4.32;;;3.40;;
9729;SDS011;4904;49.152;11.004;2022-08-11T03:21:52;4.30;;;3.90;;
9729;SDS011;4904;49.152;11.004;2022-08-11T03:24:28;3.97;;;3.53;;
9729;SDS011;4904;49.152;11.004;2022-08-11T03:27:04;3.72;;;3.38;;
9729;SDS011;4904;49.152;11.004;2022-08-11T03:29:36;3.40;;;3.10;;
9729;SDS011;4904;49.152;11.004;2022-08-11T03:32:10;5.63;;;3.58;;
9729;SDS011;4904;49.152;11.004;2022-08-11T03:34:51;4.18;;;3.10;;
9729;SDS011;4904;49.152;11.004;2022-08-11T03:37:32;7.82;;;3.53;;
9729;SDS011;4904;49.152;11.004;2022-08-11T03:40:19;3.40;;;3.10;;
9729;SDS011;4904;49.152;11.004;2022-08-11T03:43:34;3.50;;;3.20;;
9729;SDS011;4904;49.152;11.004;2022-08-11T03:46:20;4.68;;;3.33;;
9729;SDS011;4904;49.152;11.004;2022-08-11T03:49:10;4.35;;;3.15;;
9729;SDS011;4904;49.152;11.004;2022-08-11T03:51:51;3.30;;;3.00;;
9729;SDS011;4904;49.152;11.004;2022-08-11T03:54:25;3.65;;;3.30;;
9729;SDS011;4904;49.152;11.004;2022-08-11T04:00:02;3.53;;;3.20;;
9729;SDS011;4904;49.152;11.004;2022-08-11T04:05:49;4.07;;;3.22;;
9729;SDS011;4904;49.152;11.004;2022-08-11T04:09:09;3.40;;;3.10;;
9729;SDS011;4904;49.152;11.004;2022-08-11T04:12:15;3.28;;;2.97;;
9729;SDS011;4904;49.152;11.004;2022-08-11T04:15:12;3.33;;;3.03;;
9729;SDS011;4904;49.152;11.004;2022-08-11T04:21:20;4.20;;;3.10;;
9729;SDS011;4904;49.152;11.004;2022-08-11T04:24:28;4.70;;;2.97;;
9729;SDS011;4904;49.152;11.004;2022-08-11T04:27:26;6.45;;;3.28;;
9729;SDS011;4904;49.152;11.004;2022-08-11T04:30:33;4.28;;;3.10;;
9729;SDS011;4904;49.152;11.004;2022-08-11T04:36:33;3.80;;;2.97;;
9729;SDS011;4904;49.152;11.004;2022-08-11T04:39:45;4.93;;;3.58;;
9729;SDS011;4904;49.152;11.004;2022-08-11T04:46:00;4.32;;;3.83;;
9729;SDS011;4904;49.152;11.004;2022-08-11T04:52:45;5.15;;;3.75;;
9729;SDS011;4904;49.152;11.004;2022-08-11T04:55:54;6.22;;;4.60;;
9729;SDS011;4904;49.152;11.004;2022-08-11T05:02:28;8.15;;;4.50;;
9729;SDS011;4904;49.152;11.004;2022-08-11T05:05:24;4.50;;;4.10;;
9729;SDS011;4904;49.152;11.004;2022-08-11T05:08:33;8.35;;;4.60;;
9729;SDS011;4904;49.152;11.004;2022-08-11T05:11:37;5.70;;;4.72;;
9729;SDS011;4904;49.152;11.004;2022-08-11T05:14:28;8.65;;;4.22;;
9729;SDS011;4904;49.152;11.004;2022-08-11T05:17:16;12.23;;;4.53;;
9729;SDS011;4904;49.152;11.004;2022-08-11T05:20:09;10.43;;;3.97;;
9729;SDS011;4904;49.152;11.004;2022-08-11T05:22:54;6.32;;;4.03;;
9729;SDS011;4904;49.152;11.004;2022-08-11T05:25:46;6.70;;;3.53;;
9729;SDS011;4904;49.152;11.004;2022-08-11T05:28:37;3.90;;;3.42;;
9729;SDS011;4904;49.152;11.004;2022-08-11T05:31:25;5.32;;;4.03;;
9729;SDS011;4904;49.152;11.004;2022-08-11T05:34:16;4.00;;;3.60;;
9729;SDS011;4904;49.152;11.004;2022-08-11T05:37:06;4.15;;;3.47;;
9729;SDS011;4904;49.152;11.004;2022-08-11T05:39:39;6.95;;;3.83;;
9729;SDS011;4904;49.152;11.004;2022-08-11T05:42:27;6.50;;;3.47;;
9729;SDS011;4904;49.152;11.004;2022-08-11T05:45:15;5.75;;;3.50;;
9729;SDS011;4904;49.152;11.004;2022-08-11T05:48:02;4.68;;;3.38;;
9729;SDS011;4904;49.152;11.004;2022-08-11T05:50:51;4.72;;;3.38;;
9729;SDS011;4904;49.152;11.004;2022-08-11T05:53:44;4.28;;;3.28;;
9729;SDS011;4904;49.152;11.004;2022-08-11T05:56:33;9.20;;;3.70;;
9729;SDS011;4904;49.152;11.004;2022-08-11T05:59:05;8.27;;;3.05;;
9729;SDS011;4904;49.152;11.004;2022-08-11T06:01:40;6.38;;;3.45;;
9729;SDS011;4904;49.152;11.004;2022-08-11T06:04:11;4.40;;;3.35;;
9729;SDS011;4904;49.152;11.004;2022-08-11T06:06:50;9.43;;;3.75;;
9729;SDS011;4904;49.152;11.004;2022-08-11T06:09:22;6.38;;;3.38;;
9729;SDS011;4904;49.152;11.004;2022-08-11T06:11:52;6.15;;;3.33;;
9729;SDS011;4904;49.152;11.004;2022-08-11T06:14:21;5.82;;;3.10;;
9729;SDS011;4904;49.152;11.004;2022-08-11T06:16:52;6.00;;;3.08;;
9729;SDS011;4904;49.152;11.004;2022-08-11T06:19:28;6.13;;;3.42;;
9729;SDS011;4904;49.152;11.004;2022-08-11T06:21:58;6.07;;;3.20;;
9729;SDS011;4904;49.152;11.004;2022-08-11T06:24:27;3.25;;;2.95;;
9729;SDS011;4904;49.152;11.004;2022-08-11T06:26:56;5.63;;;3.35;;
9729;SDS011;4904;49.152;11.004;2022-08-11T06:29:24;3.67;;;2.75;;
9729;SDS011;4904;49.152;11.004;2022-08-11T06:31:56;9.63;;;3.58;;
9729;SDS011;4904;49.152;11.004;2022-08-11T06:34:31;6.80;;;3.20;;
9729;SDS011;4904;49.152;11.004;2022-08-11T06:40:00;6.47;;;3.15;;
9729;SDS011;4904;49.152;11.004;2022-08-11T06:42:42;5.13;;;3.20;;
9729;SDS011;4904;49.152;11.004;2022-08-11T06:45:18;8.18;;;3.38;;
9729;SDS011;4904;49.152;11.004;2022-08-11T06:47:55;3.83;;;2.83;;
9729;SDS011;4904;49.152;11.004;2022-08-11T06:50:25;5.43;;;3.40;;
9729;SDS011;4904;49.152;11.004;2022-08-11T06:53:11;5.35;;;3.22;;
9729;SDS011;4904;49.152;11.004;2022-08-11T06:55:43;5.28;;;3.15;;
9729;SDS011;4904;49.152;11.004;2022-08-11T06:58:30;4.88;;;2.80;;
9729;SDS011;4904;49.152;11.004;2022-08-11T07:01:18;4.65;;;2.70;;
9729;SDS011;4904;49.152;11.004;2022-08-11T07:03:58;5.65;;;3.33;;
9729;SDS011;4904;49.152;11.004;2022-08-11T07:06:33;3.03;;;2.72;;
9729;SDS011;4904;49.152;11.004;2022-08-11T07:09:14;3.15;;;2.60;;
9729;SDS011;4904;49.152;11.004;2022-08-11T07:15:30;3.10;;;2.67;;
9729;SDS011;4904;49.152;11.004;2022-08-11T07:18:08;5.00;;;2.80;;
9729;SDS011;4904;49.152;11.004;2022-08-11T07:21:14;3.47;;;2.78;;
9729;SDS011;4904;49.152;11.004;2022-08-11T07:24:07;2.85;;;2.65;;
9729;SDS011;4904;49.152;11.004;2022-08-11T07:26:55;4.97;;;2.92;;
9729;SDS011;4904;49.152;11.004;2022-08-11T07:29:41;4.00;;;2.97;;
9729;SDS011;4904;49.152;11.004;2022-08-11T07:32:16;3.38;;;3.08;;
9729;SDS011;4904;49.152;11.004;2022-08-11T07:34:50;5.50;;;2.83;;
9729;SDS011;4904;49.152;11.004;2022-08-11T07:37:27;3.17;;;2.70;;
9729;SDS011;4904;49.152;11.004;2022-08-11T07:39:58;5.45;;;2.85;;
9729;SDS011;4904;49.152;11.004;2022-08-11T07:42:27;3.17;;;2.67;;
9729;SDS011;4904;49.152;11.004;2022-08-11T07:44:58;3.08;;;2.72;;
9729;SDS011;4904;49.152;11.004;2022-08-11T07:47:43;4.53;;;2.80;;
9729;SDS011;4904;49.152;11.004;2022-08-11T07:50:30;3.42;;;2.47;;
9729;SDS011;4904;49.152;11.004;2022-08-11T07:53:16;4.53;;;2.65;;
9729;SDS011;4904;49.152;11.004;2022-08-11T07:55:44;2.63;;;2.40;;
9729;SDS011;4904;49.152;11.004;2022-08-11T07:58:14;6.47;;;2.88;;
9729;SDS011;4904;49.152;11.004;2022-08-11T08:00:59;3.92;;;2.35;;
9729;SDS011;4904;49.152;11.004;2022-08-11T08:03:44;6.60;;;2.40;;
9729;SDS011;4904;49.152;11.004;2022-08-11T08:06:30;6.45;;;2.38;;
9729;SDS011;4904;49.152;11.004;2022-08-11T08:09:17;3.72;;;2.80;;
9729;SDS011;4904;49.152;11.004;2022-08-11T08:12:03;5.13;;;2.42;;
9729;SDS011;4904;49.152;11.004;2022-08-11T08:14:49;3.40;;;2.55;;
9729;SDS011;4904;49.152;11.004;2022-08-11T08:17:35;3.78;;;2.63;;
9729;SDS011;4904;49.152;11.004;2022-08-11T08:20:22;4.82;;;2.55;;
9729;SDS011;4904;49.152;11.004;2022-08-11T08:22:53;4.10;;;2.38;;
9729;SDS011;4904;49.152;11.004;2022-08-11T08:25:24;3.28;;;2.15;;
9729;SDS011;4904;49.152;11.004;2022-08-11T08:27:52;3.45;;;2.47;;
9729;SDS011;4904;49.152;11.004;2022-08-11T08:30:20;3.15;;;2.50;;
9729;SDS011;4904;49.152;11.004;2022-08-11T08:33:07;2.67;;;2.47;;
9729;SDS011;4904;49.152;11.004;2022-08-11T08:35:35;2.55;;;2.35;;
9729;SDS011;4904;49.152;11.004;2022-08-11T08:38:03;2.97;;;2.30;;
9729;SDS011;4904;49.152;11.004;2022-08-11T08:40:32;3.22;;;2.63;;
9729;SDS011;4904;49.152;11.004;2022-08-11T08:43:01;5.00;;;2.47;;
9729;SDS011;4904;49.152;11.004;2022-08-11T08:45:33;6.03;;;2.50;;
9729;SDS011;4904;49.152;11.004;2022-08-11T08:48:02;4.57;;;2.88;;
9729;SDS011;4904;49.152;11.004;2022-08-11T08:50:32;3.20;;;2.40;;
9729;SDS011;4904;49.152;11.004;2022-08-11T08:53:20;2.63;;;2.42;;
9729;SDS011;4904;49.152;11.004;2022-08-11T08:55:54;2.55;;;2.35;;
9729;SDS011;4904;49.152;11.004;2022-08-11T08:58:23;3.88;;;2.30;;
9729;SDS011;4904;49.152;11.004;2022-08-11T09:00:52;4.90;;;2.55;;
9729;SDS011;4904;49.152;11.004;2022-08-11T09:03:20;2.65;;;2.45;;
9729;SDS011;4904;49.152;11.004;2022-08-11T09:05:49;3.00;;;2.17;;
9729;SDS011;4904;49.152;11.004;2022-08-11T09:08:19;3.35;;;2.42;;
9729;SDS011;4904;49.152;11.004;2022-08-11T09:10:48;4.05;;;2.58;;
9729;SDS011;4904;49.152;11.004;2022-08-11T09:13:38;3.58;;;2.38;;
9729;SDS011;4904;49.152;11.004;2022-08-11T09:16:08;3.05;;;2.40;;
9729;SDS011;4904;49.152;11.004;2022-08-11T09:18:36;2.33;;;2.17;;
9729;SDS011;4904;49.152;11.004;2022-08-11T09:21:05;2.53;;;2.28;;
9729;SDS011;4904;49.152;11.004;2022-08-11T09:23:32;3.80;;;2.58;;
9729;SDS011;4904;49.152;11.004;2022-08-11T09:26:17;5.13;;;2.45;;
9729;SDS011;4904;49.152;11.004;2022-08-11T09:29:04;3.67;;;2.60;;
9729;SDS011;4904;49.152;11.004;2022-08-11T09:31:33;4.82;;;2.05;;
9729;SDS011;4904;49.152;11.004;2022-08-11T09:34:01;3.75;;;2.13;;
9729;SDS011;4904;49.152;11.004;2022-08-11T09:36:28;2.28;;;2.00;;
9729;SDS011;4904;49.152;11.004;2022-08-11T09:39:13;2.38;;;2.17;;
9729;SDS011;4904;49.152;11.004;2022-08-11T09:41:59;2.90;;;2.35;;
9729;SDS011;4904;49.152;11.004;2022-08-11T09:44:30;3.58;;;2.45;;
9729;SDS011;4904;49.152;11.004;2022-08-11T09:47:14;3.65;;;2.40;;
9729;SDS011;4904;49.152;11.004;2022-08-11T09:49:44;4.35;;;2.28;;
9729;SDS011;4904;49.152;11.004;2022-08-11T09:52:13;2.55;;;2.30;;
9729;SDS011;4904;49.152;11.004;2022-08-11T09:54:41;4.68;;;2.50;;
9729;SDS011;4904;49.152;11.004;2022-08-11T09:57:08;2.70;;;2.20;;
9729;SDS011;4904;49.152;11.004;2022-08-11T09:59:54;3.38;;;2.20;;
9729;SDS011;4904;49.152;11.004;2022-08-11T10:02:22;3.72;;;2.20;;
9729;SDS011;4904;49.152;11.004;2022-08-11T10:04:52;3.20;;;2.38;;
9729;SDS011;4904;49.152;11.004;2022-08-11T10:07:43;2.30;;;2.20;;
9729;SDS011;4904;49.152;11.004;2022-08-11T10:10:14;3.90;;;2.30;;
9729;SDS011;4904;49.152;11.004;2022-08-11T10:12:47;2.13;;;1.98;;
9729;SDS011;4904;49.152;11.004;2022-08-11T10:15:18;2.30;;;2.10;;
9729;SDS011;4904;49.152;11.004;2022-08-11T10:18:05;2.88;;;2.10;;
9729;SDS011;4904;49.152;11.004;2022-08-11T10:20:52;4.43;;;2.20;;
9729;SDS011;4904;49.152;11.004;2022-08-11T10:23:24;4.32;;;2.80;;
9729;SDS011;4904;49.152;11.004;2022-08-11T10:26:10;4.80;;;2.45;;
9729;SDS011;4904;49.152;11.004;2022-08-11T10:28:55;4.10;;;2.55;;
9729;SDS011;4904;49.152;11.004;2022-08-11T10:31:26;3.92;;;2.70;;
9729;SDS011;4904;49.152;11.004;2022-08-11T10:36:57;2.80;;;2.50;;
9729;SDS011;4904;49.152;11.004;2022-08-11T10:39:27;3.95;;;2.40;;
9729;SDS011;4904;49.152;11.004;2022-08-11T10:41:54;3.28;;;2.60;;
9729;SDS011;4904;49.152;11.004;2022-08-11T10:44:40;4.10;;;2.40;;
9729;SDS011;4904;49.152;11.004;2022-08-11T10:47:12;3.95;;;2.45;;
9729;SDS011;4904;49.152;11.004;2022-08-11T10:49:58;2.50;;;2.30;;
9729;SDS011;4904;49.152;11.004;2022-08-11T10:52:43;3.15;;;2.40;;
9729;SDS011;4904;49.152;11.004;2022-08-11T10:55:32;3.05;;;2.40;;
9729;SDS011;4904;49.152;11.004;2022-08-11T10:58:17;3.25;;;2.25;;
9729;SDS011;4904;49.152;11.004;2022-08-11T11:01:01;10.73;;;2.47;;
9729;SDS011;4904;49.152;11.004;2022-08-11T11:03:32;2.30;;;2.20;;
9729;SDS011;4904;49.152;11.004;2022-08-11T11:06:02;3.17;;;2.20;;
9729;SDS011;4904;49.152;11.004;2022-08-11T11:08:35;2.53;;;2.33;;
9729;SDS011;4904;49.152;11.004;2022-08-11T11:11:21;2.72;;;2.38;;
9729;SDS011;4904;49.152;11.004;2022-08-11T11:14:13;2.60;;;2.40;;
9729;SDS011;4904;49.152;11.004;2022-08-11T11:17:01;4.30;;;3.10;;
9729;SDS011;4904;49.152;11.004;2022-08-11T11:19:49;4.60;;;2.42;;
9729;SDS011;4904;49.152;11.004;2022-08-11T11:22:21;4.45;;;2.15;;
9729;SDS011;4904;49.152;11.004;2022-08-11T11:25:08;5.65;;;2.50;;
9729;SDS011;4904;49.152;11.004;2022-08-11T11:27:47;2.65;;;2.45;;
9729;SDS011;4904;49.152;11.004;2022-08-11T11:30:22;3.28;;;2.05;;
9729;SDS011;4904;49.152;11.004;2022-08-11T11:33:00;2.40;;;2.20;;
9729;SDS011;4904;49.152;11.004;2022-08-11T11:35:40;2.38;;;2.22;;
9729;SDS011;4904;49.152;11.004;2022-08-11T11:38:15;2.65;;;2.35;;
9729;SDS011;4904;49.152;11.004;2022-08-11T11:40:43;3.92;;;2.25;;
9729;SDS011;4904;49.152;11.004;2022-08-11T11:43:31;3.45;;;2.20;;
9729;SDS011;4904;49.152;11.004;2022-08-11T11:46:01;1.95;;;1.80;;
9729;SDS011;4904;49.152;11.004;2022-08-11T11:48:29;3.08;;;2.35;;
9729;SDS011;4904;49.152;11.004;2022-08-11T11:50:58;2.35;;;2.15;;
9729;SDS011;4904;49.152;11.004;2022-08-11T11:53:26;2.40;;;2.20;;
9729;SDS011;4904;49.152;11.004;2022-08-11T11:55:53;3.83;;;2.22;;
9729;SDS011;4904;49.152;11.004;2022-08-11T11:58:21;2.88;;;2.08;;
9729;SDS011;4904;49.152;11.004;2022-08-11T12:01:06;2.95;;;2.08;;
9729;SDS011;4904;49.152;11.004;2022-08-11T12:03:44;3.55;;;2.30;;
9729;SDS011;4904;49.152;11.004;2022-08-11T12:06:16;4.15;;;2.10;;
9729;SDS011;4904;49.152;11.004;2022-08-11T12:08:47;2.85;;;1.90;;
9729;SDS011;4904;49.152;11.004;2022-08-11T12:11:15;2.20;;;2.00;;
9729;SDS011;4904;49.152;11.004;2022-08-11T12:14:02;2.72;;;2.45;;
9729;SDS011;4904;49.152;11.004;2022-08-11T12:16:31;3.88;;;2.50;;
9729;SDS011;4904;49.152;11.004;2022-08-11T12:19:00;3.28;;;1.90;;
9729;SDS011;4904;49.152;11.004;2022-08-11T12:21:30;3.40;;;1.80;;
9729;SDS011;4904;49.152;11.004;2022-08-11T12:24:00;2.97;;;2.13;;
9729;SDS011;4904;49.152;11.004;2022-08-11T12:26:45;1.90;;;1.80;;
9729;SDS011;4904;49.152;11.004;2022-08-11T12:29:31;2.08;;;1.98;;
9729;SDS011;4904;49.152;11.004;2022-08-11T12:31:59;1.95;;;1.85;;
9729;SDS011;4904;49.152;11.004;2022-08-11T12:34:26;2.00;;;1.90;;
9729;SDS011;4904;49.152;11.004;2022-08-11T12:36:55;2.33;;;1.75;;
9729;SDS011;4904;49.152;11.004;2022-08-11T12:39:24;2.10;;;1.90;;
9729;SDS011;4904;49.152;11.004;2022-08-11T12:42:15;6.35;;;2.17;;
9729;SDS011;4904;49.152;11.004;2022-08-11T12:45:01;3.72;;;2.05;;
9729;SDS011;4904;49.152;11.004;2022-08-11T12:48:00;2.35;;;2.15;;
9729;SDS011;4904;49.152;11.004;2022-08-11T12:50:49;2.20;;;2.08;;
9729;SDS011;4904;49.152;11.004;2022-08-11T12:53:41;2.38;;;2.00;;
9729;SDS011;4904;49.152;11.004;2022-08-11T12:56:15;1.80;;;1.70;;
9729;SDS011;4904;49.152;11.004;2022-08-11T12:59:01;3.72;;;1.98;;
9729;SDS011;4904;49.152;11.004;2022-08-11T13:01:47;2.20;;;2.00;;
9729;SDS011;4904;49.152;11.004;2022-08-11T13:04:32;2.72;;;2.15;;
9729;SDS011;4904;49.152;11.004;2022-08-11T13:07:20;2.13;;;2.03;;
9729;SDS011;4904;49.152;11.004;2022-08-11T13:09:49;2.60;;;2.00;;
9729;SDS011;4904;49.152;11.004;2022-08-11T13:12:17;2.55;;;2.00;;
9729;SDS011;4904;49.152;11.004;2022-08-11T13:15:02;4.13;;;1.98;;
9729;SDS011;4904;49.152;11.004;2022-08-11T13:17:31;2.72;;;2.20;;
9729;SDS011;4904;49.152;11.004;2022-08-11T13:19:59;3.03;;;2.33;;
9729;SDS011;4904;49.152;11.004;2022-08-11T13:22:29;3.28;;;1.98;;
9729;SDS011;4904;49.152;11.004;2022-08-11T13:24:57;6.90;;;2.20;;
9729;SDS011;4904;49.152;11.004;2022-08-11T13:27:25;2.67;;;2.00;;
9729;SDS011;4904;49.152;11.004;2022-08-11T13:29:52;4.50;;;1.95;;
9729;SDS011;4904;49.152;11.004;2022-08-11T13:32:41;2.08;;;1.85;;
9729;SDS011;4904;49.152;11.004;2022-08-11T13:35:11;2.25;;;2.05;;
9729;SDS011;4904;49.152;11.004;2022-08-11T13:37:40;2.10;;;1.85;;
9729;SDS011;4904;49.152;11.004;2022-08-11T13:40:11;2.20;;;2.00;;
9729;SDS011;4904;49.152;11.004;2022-08-11T13:42:42;2.20;;;2.00;;
9729;SDS011;4904;49.152;11.004;2022-08-11T13:45:09;2.40;;;1.90;;
9729;SDS011;4904;49.152;11.004;2022-08-11T13:47:37;3.53;;;2.13;;
9729;SDS011;4904;49.152;11.004;2022-08-11T13:50:05;2.63;;;2.20;;
9729;SDS011;4904;49.152;11.004;2022-08-11T13:52:33;2.22;;;2.08;;
9729;SDS011;4904;49.152;11.004;2022-08-11T13:55:03;3.83;;;2.17;;
9729;SDS011;4904;49.152;11.004;2022-08-11T13:57:33;2.22;;;2.05;;
9729;SDS011;4904;49.152;11.004;2022-08-11T14:00:02;2.15;;;2.05;;
9729;SDS011;4904;49.152;11.004;2022-08-11T14:02:40;2.38;;;2.20;;
9729;SDS011;4904;49.152;11.004;2022-08-11T14:05:10;2.33;;;2.13;;
9729;SDS011;4904;49.152;11.004;2022-08-11T14:07:41;3.67;;;1.90;;
9729;SDS011;4904;49.152;11.004;2022-08-11T14:10:15;2.22;;;1.98;;
9729;SDS011;4904;49.152;11.004;2022-08-11T14:12:45;2.63;;;1.92;;
9729;SDS011;4904;49.152;11.004;2022-08-11T14:15:38;2.22;;;2.00;;
9729;SDS011;4904;49.152;11.004;2022-08-11T14:18:10;3.33;;;2.40;;
9729;SDS011;4904;49.152;11.004;2022-08-11T14:20:51;2.63;;;2.22;;
9729;SDS011;4904;49.152;11.004;2022-08-11T14:23:38;2.55;;;2.17;;
9729;SDS011;4904;49.152;11.004;2022-08-11T14:26:06;4.63;;;2.42;;
9729;SDS011;4904;49.152;11.004;2022-08-11T14:28:53;2.92;;;2.35;;
9729;SDS011;4904;49.152;11.004;2022-08-11T14:31:26;3.13;;;2.13;;
9729;SDS011;4904;49.152;11.004;2022-08-11T14:33:56;5.03;;;2.50;;
9729;SDS011;4904;49.152;11.004;2022-08-11T14:36:27;2.80;;;1.90;;
9729;SDS011;4904;49.152;11.004;2022-08-11T14:38:57;2.30;;;2.10;;
9729;SDS011;4904;49.152;11.004;2022-08-11T14:41:24;2.85;;;2.05;;
9729;SDS011;4904;49.152;11.004;2022-08-11T14:44:11;3.25;;;1.90;;
9729;SDS011;4904;49.152;11.004;2022-08-11T14:46:56;2.60;;;1.98;;
9729;SDS011;4904;49.152;11.004;2022-08-11T14:49:30;2.70;;;2.50;;
9729;SDS011;4904;49.152;11.004;2022-08-11T14:52:00;2.40;;;2.20;;
9729;SDS011;4904;49.152;11.004;2022-08-11T14:54:30;2.60;;;1.88;;
9729;SDS011;4904;49.152;11.004;2022-08-11T14:57:15;2.90;;;2.15;;
9729;SDS011;4904;49.152;11.004;2022-08-11T14:59:44;2.92;;;2.17;;
9729;SDS011;4904;49.152;11.004;2022-08-11T15:02:13;5.18;;;1.92;;
9729;SDS011;4904;49.152;11.004;2022-08-11T15:04:59;2.00;;;1.80;;
9729;SDS011;4904;49.152;11.004;2022-08-11T15:07:26;4.80;;;1.88;;
9729;SDS011;4904;49.152;11.004;2022-08-11T15:09:55;3.78;;;2.13;;
9729;SDS011;4904;49.152;11.004;2022-08-11T15:12:23;3.30;;;2.63;;
9729;SDS011;4904;49.152;11.004;2022-08-11T15:14:52;2.72;;;2.20;;
9729;SDS011;4904;49.152;11.004;2022-08-11T15:17:38;3.33;;;2.10;;
9729;SDS011;4904;49.152;11.004;2022-08-11T15:20:08;2.90;;;1.88;;
9729;SDS011;4904;49.152;11.004;2022-08-11T15:22:56;2.22;;;2.08;;
9729;SDS011;4904;49.152;11.004;2022-08-11T15:25:42;2.35;;;2.15;;
9729;SDS011;4904;49.152;11.004;2022-08-11T15:28:11;2.35;;;2.10;;
9729;SDS011;4904;49.152;11.004;2022-08-11T15:31:00;2.00;;;1.80;;
9729;SDS011;4904;49.152;11.004;2022-08-11T15:33:46;4.93;;;2.03;;
9729;SDS011;4904;49.152;11.004;2022-08-11T15:36:35;4.82;;;2.20;;
9729;SDS011;4904;49.152;11.004;2022-08-11T15:39:21;3.97;;;2.38;;
9729;SDS011;4904;49.152;11.004;2022-08-11T15:41:53;2.40;;;2.20;;
9729;SDS011;4904;49.152;11.004;2022-08-11T15:44:42;2.90;;;2.58;;
9729;SDS011;4904;49.152;11.004;2022-08-11T15:47:40;4.80;;;2.20;;
9729;SDS011;4904;49.152;11.004;2022-08-11T15:50:13;3.53;;;2.10;;
9729;SDS011;4904;49.152;11.004;2022-08-11T15:52:45;3.15;;;2.20;;
9729;SDS011;4904;49.152;11.004;2022-08-11T15:55:16;3.92;;;2.33;;
9729;SDS011;4904;49.152;11.004;2022-08-11T15:57:45;2.20;;;2.10;;
9729;SDS011;4904;49.152;11.004;2022-08-11T16:00:33;3.38;;;2.20;;
9729;SDS011;4904;49.152;11.004;2022-08-11T16:03:20;2.25;;;1.67;;
9729;SDS011;4904;49.152;11.004;2022-08-11T16:06:07;3.75;;;1.80;;
9729;SDS011;4904;49.152;11.004;2022-08-11T16:08:36;2.13;;;1.95;;
9729;SDS011;4904;49.152;11.004;2022-08-11T16:11:05;2.28;;;2.03;;
9729;SDS011;4904;49.152;11.004;2022-08-11T16:13:34;2.25;;;1.88;;
9729;SDS011;4904;49.152;11.004;2022-08-11T16:16:21;4.40;;;2.00;;
9729;SDS011;4904;49.152;11.004;2022-08-11T16:18:50;2.38;;;2.10;;
9729;SDS011;4904;49.152;11.004;2022-08-11T16:21:22;2.40;;;2.10;;
9729;SDS011;4904;49.152;11.004;2022-08-11T16:23:54;6.03;;;2.38;;
9729;SDS011;4904;49.152;11.004;2022-08-11T16:26:24;2.50;;;2.30;;
9729;SDS011;4904;49.152;11.004;2022-08-11T16:28:54;4.57;;;2.80;;
9729;SDS011;4904;49.152;11.004;2022-08-11T16:31:25;2.60;;;2.40;;
9729;SDS011;4904;49.152;11.004;2022-08-11T16:33:55;3.92;;;3.58;;
9729;SDS011;4904;49.152;11.004;2022-08-11T16:36:24;3.53;;;2.30;;
9729;SDS011;4904;49.152;11.004;2022-08-11T16:39:11;4.95;;;3.33;;
9729;SDS011;4904;49.152;11.004;2022-08-11T16:41:42;2.28;;;2.08;;
9729;SDS011;4904;49.152;11.004;2022-08-11T16:44:28;2.90;;;2.03;;
9729;SDS011;4904;49.152;11.004;2022-08-11T16:47:14;3.45;;;2.13;;
9729;SDS011;4904;49.152;11.004;2022-08-11T16:49:45;2.85;;;2.65;;
9729;SDS011;4904;49.152;11.004;2022-08-11T16:52:14;3.65;;;2.47;;
9729;SDS011;4904;49.152;11.004;2022-08-11T16:54:41;2.80;;;2.30;;
9729;SDS011;4904;49.152;11.004;2022-08-11T16:57:11;4.18;;;2.53;;
9729;SDS011;4904;49.152;11.004;2022-08-11T16:59:59;2.42;;;2.22;;
9729;SDS011;4904;49.152;11.004;2022-08-11T17:02:31;3.97;;;2.00;;
9729;SDS011;4904;49.152;11.004;2022-08-11T17:05:20;4.93;;;3.10;;
9729;SDS011;4904;49.152;11.004;2022-08-11T17:08:07;4.22;;;2.90;;
9729;SDS011;4904;49.152;11.004;2022-08-11T17:10:54;3.97;;;2.13;;
9729;SDS011;4904;49.152;11.004;2022-08-11T17:13:41;3.05;;;1.85;;
9729;SDS011;4904;49.152;11.004;2022-08-11T17:16:13;3.65;;;2.10;;
9729;SDS011;4904;49.152;11.004;2022-08-11T17:18:50;2.67;;;2.30;;